Etusivu
METAR-TAF:

METAR-TAF

Lentoasemat :

Utti, Suomi

Utin lentoasema

Leveyspiiri: 60-54N, Pituuspiiri: 026-56E, korkeus merenpinnasta: 100 m

Tämänhetkinen sää

Tämä raportti tehtiin 37 minuuttia sitten, kello 04.20 UTC
Tuuli 5 kn idästä
Lämpötila 11°C
Kosteus 100%
Ilmanpaine 1026 hPa
Näkyvyys: 6000 m
Pilvistä 200 ft:n korkeudessa

METAR: EFUT 210420Z 09005KT 6000 OVC002 11/11 Q1026

Aika: 07:57 (04:57 UTC)

Sääennuste

Tämä raportti tehtiin 2 tuntia ja 23 minuuttia sitten, kello 02.34 UTC
Ennuste voimassa 21. päivästä klo 03 UTC - 21. päivään klo 12 UTC
Tuuli 5 kn idästä/kaakosta
Näkyvyys 10 km tai enemmän
Pilvistä 200 ft:n korkeudessa
Ajoittain
21. päivästä klo 03 UTC - 21. päivään klo 06 UTC
Näkyvyys: 0700 m
200 ft:n korkeudessa
sumua
Tulossa
21. päivästä klo 06 UTC - 21. päivään klo 08 UTC
Hajanaisia pilviä 1200 ft:n korkeudessa

TAF: EFUT 210234Z 2103/2112 12005KT 9999 OVC002 TEMPO 2103/2106 0700 FG VV002 BECMG 2106/2108 SCT012

Säähavainnot ja -ennusteet yli 4000 lentoasemalta (METAR- ja TAF-raportit).

Käytössä olevat sääasemat on merkitty karttaan keltaisilla ja punaisilla pisteillä.

Aseta hiiri pisteen päälle nähdäksesi sääaseman nimen.

Klikkaa sitten nähdäksesi säähavainnot ja -ennusteet.

Kartan vaihtaminen: klikkaa mustalla rastilla varustettuja vihreitä pisteitä, niin voit zoomata sisään; viivalla varustettua vihreää pistettä, niin voit zoomata ulos tai vihreitä nuolia, niin pääset viereisille kartoille.


METAR-TAF: